Time;durP1;ratioP1;P1;durP2;ratioP2;P2;SDS_P1;SDS_P2;PMS_P1;PMS_P2;Temp;Humidity;BMP_temperature;BMP_pressure;BME280_temperature;BME280_humidity;BME280_pressure;Samples;Min_cycle;Max_cycle;Signal;HPM_P1;HPM_P2
2022/07/18 00:04:20;;;;;;;6.53;4.07;;;32.90;21.60;;;;;;21252130;27;20085;-58
2022/07/18 00:14:22;;;;;;;6.88;4.35;;;32.70;21.90;;;;;;21250481;27;20047;-56
2022/07/18 00:24:24;;;;;;;5.80;3.55;;;32.50;22.50;;;;;;21250716;27;20053;-57
2022/07/18 00:34:25;;;;;;;6.30;3.70;;;32.30;23.20;;;;;;21251649;27;20103;-58
2022/07/18 00:44:28;;;;;;;8.25;3.70;;;32.10;23.70;;;;;;21248954;27;20043;-57
2022/07/18 00:54:32;;;;;;;7.72;3.97;;;32.00;24.10;;;;;;21248240;27;20410;-56
2022/07/18 01:04:34;;;;;;;6.05;4.00;;;32.00;24.30;;;;;;21247313;27;20079;-56
2022/07/18 01:14:36;;;;;;;6.82;4.22;;;31.80;24.80;;;;;;21246367;27;20051;-57
2022/07/18 01:24:41;;;;;;;8.02;4.30;;;31.60;25.50;;;;;;21247612;28;20053;-56
2022/07/18 01:34:46;;;;;;;5.88;4.15;;;31.60;26.10;;;;;;21250770;27;20460;-56
2022/07/18 01:44:49;;;;;;;6.68;4.35;;;31.40;26.70;;;;;;21264074;27;20051;-57
2022/07/18 01:54:53;;;;;;;5.03;3.78;;;31.30;27.10;;;;;;21262340;27;20071;-55
2022/07/18 02:04:59;;;;;;;5.85;4.65;;;31.20;27.60;;;;;;21261621;27;20074;-55
2022/07/18 02:15:01;;;;;;;4.75;4.00;;;31.10;28.00;;;;;;21260903;27;20054;-56
2022/07/18 02:25:05;;;;;;;5.45;4.28;;;31.00;28.30;;;;;;21260239;27;20047;-56
2022/07/18 02:35:09;;;;;;;5.28;4.22;;;30.80;28.60;;;;;;21259231;27;20043;-58
2022/07/18 02:45:12;;;;;;;4.53;4.00;;;30.60;28.70;;;;;;21257667;27;20479;-56
2022/07/18 02:55:14;;;;;;;8.38;4.90;;;30.50;28.80;;;;;;21259439;27;20489;-56
2022/07/18 03:05:16;;;;;;;6.22;4.35;;;30.40;28.80;;;;;;21258306;27;20043;-55
2022/07/18 03:15:17;;;;;;;7.03;3.97;;;30.30;28.80;;;;;;21256876;27;20050;-55
2022/07/18 03:25:19;;;;;;;8.98;4.47;;;30.30;28.80;;;;;;21255389;27;20050;-58
2022/07/18 03:35:21;;;;;;;4.60;4.13;;;30.10;29.10;;;;;;21256438;27;20079;-56
2022/07/18 03:45:23;;;;;;;6.30;4.18;;;30.10;29.20;;;;;;21253813;27;20051;-58
2022/07/18 03:55:26;;;;;;;6.47;4.10;;;29.90;29.30;;;;;;21253840;27;20050;-57
2022/07/18 04:05:28;;;;;;;6.00;4.10;;;29.90;29.40;;;;;;21250511;27;20047;-57
2022/07/18 04:15:30;;;;;;;4.38;3.60;;;29.90;29.30;;;;;;21251348;27;20099;-60
2022/07/18 04:25:38;;;;;;;5.38;3.90;;;29.80;29.50;;;;;;21251439;27;20384;-57
2022/07/18 04:35:41;;;;;;;6.38;4.22;;;29.70;29.30;;;;;;21251615;27;20177;-57
2022/07/18 04:45:43;;;;;;;5.40;3.83;;;29.60;29.50;;;;;;21250510;27;20075;-56
2022/07/18 04:55:46;;;;;;;5.93;3.80;;;29.50;29.80;;;;;;21248679;27;20043;-56
2022/07/18 05:05:48;;;;;;;6.38;4.03;;;29.30;29.70;;;;;;21247693;27;20134;-58
2022/07/18 05:15:49;;;;;;;4.22;3.40;;;29.30;29.40;;;;;;21248167;27;20478;-56
2022/07/18 05:25:51;;;;;;;4.57;3.95;;;29.20;29.30;;;;;;21247379;28;20043;-55
2022/07/18 05:35:53;;;;;;;5.07;4.20;;;29.20;28.60;;;;;;21246959;28;20107;-57
2022/07/18 05:45:55;;;;;;;11.35;3.90;;;29.10;28.60;;;;;;21246620;28;20047;-56
2022/07/18 05:55:57;;;;;;;6.47;4.45;;;29.10;28.60;;;;;;21246430;28;20101;-57
2022/07/18 06:05:58;;;;;;;8.95;3.97;;;29.10;29.10;;;;;;21245910;28;20475;-56
2022/07/18 06:16:00;;;;;;;5.45;3.80;;;29.10;28.90;;;;;;21246639;28;20047;-56
2022/07/18 06:26:02;;;;;;;8.18;4.40;;;29.10;29.00;;;;;;21255186;27;20138;-56
2022/07/18 06:36:05;;;;;;;5.22;3.90;;;29.10;29.60;;;;;;21259381;27;20134;-56
2022/07/18 06:46:07;;;;;;;11.55;4.95;;;29.30;29.30;;;;;;21259894;27;20050;-57
2022/07/18 06:56:09;;;;;;;8.05;4.13;;;29.30;29.40;;;;;;21259800;27;20146;-57
2022/07/18 07:06:11;;;;;;;5.70;3.97;;;29.60;29.00;;;;;;21257158;27;20058;-57
2022/07/18 07:16:12;;;;;;;5.85;3.85;;;30.10;28.30;;;;;;21255680;27;20506;-57
2022/07/18 07:26:14;;;;;;;6.57;3.83;;;30.70;26.80;;;;;;21256759;27;20062;-56
2022/07/18 07:36:16;;;;;;;5.95;3.70;;;31.10;26.50;;;;;;21255164;27;20051;-57
2022/07/18 07:46:18;;;;;;;5.95;4.03;;;31.50;25.90;;;;;;21254545;27;20050;-56
2022/07/18 07:56:20;;;;;;;7.50;3.50;;;31.90;25.60;;;;;;21252882;27;20122;-56
2022/07/18 08:06:22;;;;;;;6.32;3.25;;;32.30;25.10;;;;;;21252608;27;20059;-57
2022/07/18 08:16:24;;;;;;;5.13;3.35;;;32.50;24.60;;;;;;21251171;27;20047;-57
2022/07/18 08:26:26;;;;;;;7.63;3.88;;;32.70;24.60;;;;;;21251975;27;20410;-56
2022/07/18 08:36:27;;;;;;;11.18;3.58;;;32.80;24.70;;;;;;21249672;27;20551;-56
2022/07/18 08:46:30;;;;;;;6.90;3.35;;;33.10;24.10;;;;;;21249268;27;20051;-56
2022/07/18 08:56:31;;;;;;;17.33;4.65;;;33.10;24.30;;;;;;21249689;27;20059;-57
2022/07/18 09:06:44;;;;;;;8.73;4.07;;;33.40;24.00;;;;;;21248574;27;20134;-57
2022/07/18 09:16:59;;;;;;;4.18;3.10;;;33.50;24.10;;;;;;21247970;27;20115;-57
2022/07/18 09:27:01;;;;;;;7.78;3.60;;;33.70;23.70;;;;;;21245840;28;20112;-53
2022/07/18 09:37:03;;;;;;;7.60;3.70;;;33.70;25.40;;;;;;21245886;28;20086;-55
2022/07/18 09:47:06;;;;;;;7.95;3.75;;;33.60;24.70;;;;;;21234647;28;20468;-57
2022/07/18 09:57:22;;;;;;;10.13;4.43;;;33.90;23.00;;;;;;21248338;27;20080;-56
2022/07/18 10:07:25;;;;;;;8.45;3.97;;;34.20;23.70;;;;;;21258744;27;20047;-57
2022/07/18 10:17:27;;;;;;;8.80;4.10;;;34.30;24.00;;;;;;21259861;27;20053;-57
2022/07/18 10:27:51;;;;;;;8.52;4.13;;;34.30;22.60;;;;;;21260662;27;20133;-55
2022/07/18 10:38:18;;;;;;;5.82;3.70;;;34.90;23.10;;;;;;21254374;27;20471;-56
2022/07/18 10:48:35;;;;;;;8.23;3.80;;;34.70;23.10;;;;;;21253303;27;20043;-55
2022/07/18 10:58:40;;;;;;;8.95;3.92;;;35.10;22.00;;;;;;21245554;27;20096;-54
2022/07/18 11:08:42;;;;;;;9.05;3.80;;;34.80;22.30;;;;;;21207265;27;20058;-58
2022/07/18 11:18:43;;;;;;;9.60;4.10;;;35.00;22.10;;;;;;21227335;27;20051;-56
2022/07/18 11:28:48;;;;;;;7.60;3.90;;;35.30;22.20;;;;;;21226532;27;20057;-55
2022/07/18 11:38:56;;;;;;;7.38;3.50;;;35.30;22.20;;;;;;21242828;27;20051;-57
2022/07/18 11:49:00;;;;;;;25.85;23.15;;;35.70;22.00;;;;;;21254710;27;20091;-58
2022/07/18 11:59:04;;;;;;;12.45;4.60;;;35.70;21.80;;;;;;21253701;27;20066;-58
2022/07/18 12:09:06;;;;;;;9.43;3.92;;;35.80;22.00;;;;;;21252239;27;20082;-57
2022/07/18 12:19:39;;;;;;;9.80;4.65;;;36.10;21.70;;;;;;21250443;27;20051;-57
2022/07/18 12:30:07;;;;;;;6.50;4.43;;;36.20;21.60;;;;;;21251261;27;20518;-59
2022/07/18 12:40:48;;;;;;;9.63;3.55;;;36.30;21.50;;;;;;21249035;27;20061;-59
2022/07/18 12:51:11;;;;;;;5.68;3.33;;;36.60;21.10;;;;;;21250014;27;20043;-56
2022/07/18 13:01:33;;;;;;;7.78;3.63;;;36.60;20.60;;;;;;21249507;27;20504;-57
2022/07/18 13:11:54;;;;;;;7.07;3.50;;;36.70;20.50;;;;;;21248456;27;20061;-56
2022/07/18 13:22:16;;;;;;;6.22;3.47;;;37.20;19.60;;;;;;21246383;27;20050;-56
2022/07/18 13:32:37;;;;;;;4.53;3.47;;;37.20;19.90;;;;;;21254699;27;20047;-58
2022/07/18 13:42:52;;;;;;;5.13;2.90;;;37.20;19.90;;;;;;21237782;27;20479;-58
2022/07/18 13:53:13;;;;;;;7.35;3.45;;;37.50;19.80;;;;;;21236488;27;20059;-58
2022/07/18 14:03:34;;;;;;;9.82;3.72;;;37.50;19.50;;;;;;21235963;27;20039;-57
2022/07/18 14:13:55;;;;;;;9.95;3.65;;;37.60;19.20;;;;;;21235728;27;20070;-58
2022/07/18 14:24:17;;;;;;;3.80;2.97;;;38.00;17.90;;;;;;21234109;27;20199;-57
2022/07/18 14:34:38;;;;;;;7.07;3.00;;;38.20;18.20;;;;;;21234493;27;20051;-56
2022/07/18 14:44:59;;;;;;;6.20;3.08;;;38.10;18.10;;;;;;21228971;27;20044;-58
2022/07/18 14:55:21;;;;;;;7.38;3.65;;;38.30;18.00;;;;;;21174645;28;20047;-58
2022/07/18 15:05:33;;;;;;;6.70;3.17;;;38.50;18.00;;;;;;21174568;28;20121;-56
2022/07/18 15:15:47;;;;;;;6.68;3.50;;;38.60;17.90;;;;;;21175159;27;20044;-59
2022/07/18 15:25:55;;;;;;;7.55;4.35;;;38.70;18.00;;;;;;21173382;28;20059;-59
2022/07/18 15:36:02;;;;;;;8.20;3.53;;;38.70;18.00;;;;;;21172582;28;20048;-59
2022/07/18 15:46:08;;;;;;;9.55;3.22;;;38.60;18.00;;;;;;21171850;28;20069;-59
2022/07/18 15:56:12;;;;;;;4.25;3.40;;;38.70;18.00;;;;;;21169455;28;20048;-57
2022/07/18 16:06:14;;;;;;;8.90;2.75;;;38.70;17.60;;;;;;21169760;28;20514;-57
2022/07/18 16:16:18;;;;;;;4.38;2.85;;;38.60;17.10;;;;;;21169909;28;20052;-59
2022/07/18 16:26:20;;;;;;;6.35;3.05;;;38.80;16.50;;;;;;21167578;28;20043;-58
2022/07/18 16:36:23;;;;;;;7.32;2.90;;;38.80;16.30;;;;;;21166827;28;20075;-59
2022/07/18 16:46:26;;;;;;;5.03;2.95;;;38.90;16.60;;;;;;21166539;28;20108;-58
2022/07/18 16:56:28;;;;;;;7.53;3.33;;;39.00;16.10;;;;;;21164677;28;20054;-59
2022/07/18 17:06:30;;;;;;;7.57;3.17;;;38.90;16.20;;;;;;21164949;28;20048;-57
2022/07/18 17:16:32;;;;;;;10.23;3.55;;;38.70;16.40;;;;;;21163531;28;20047;-58
2022/07/18 17:26:36;;;;;;;6.78;3.45;;;38.60;16.60;;;;;;21163162;28;20058;-58
2022/07/18 17:36:40;;;;;;;8.35;3.50;;;38.60;16.80;;;;;;21163233;28;20530;-57
2022/07/18 17:46:42;;;;;;;7.55;3.42;;;38.50;16.90;;;;;;21163959;28;20054;-57
2022/07/18 17:56:45;;;;;;;9.05;3.90;;;38.20;17.30;;;;;;21161351;28;20059;-59
2022/07/18 18:06:47;;;;;;;11.55;3.58;;;38.10;17.60;;;;;;21189764;28;20085;-55
2022/07/18 18:16:49;;;;;;;8.00;3.75;;;38.30;17.70;;;;;;21231774;27;20412;-56
2022/07/18 18:26:52;;;;;;;7.35;3.72;;;38.00;17.90;;;;;;21169811;28;20151;-57
2022/07/18 18:36:54;;;;;;;9.77;3.33;;;37.90;17.80;;;;;;21173264;28;20452;-55
2022/07/18 18:46:57;;;;;;;6.30;3.20;;;37.80;18.00;;;;;;21173977;28;20062;-56
2022/07/18 18:56:58;;;;;;;9.52;3.28;;;37.70;18.00;;;;;;21174550;28;20521;-58
2022/07/18 19:07:02;;;;;;;8.93;4.10;;;37.60;18.00;;;;;;21172644;28;20044;-56
2022/07/18 19:17:04;;;;;;;9.43;3.67;;;37.50;18.10;;;;;;21164204;28;20542;-54
2022/07/18 19:27:06;;;;;;;6.32;3.13;;;37.40;18.10;;;;;;21089890;28;20056;-55
2022/07/18 19:37:07;;;;;;;8.07;3.92;;;37.30;18.00;;;;;;21095461;28;20135;-56
2022/07/18 19:47:09;;;;;;;10.98;4.30;;;37.10;19.00;;;;;;21085409;28;20377;-54
2022/07/18 19:57:10;;;;;;;11.15;4.10;;;36.70;21.10;;;;;;21085125;28;20052;-55
2022/07/18 20:07:12;;;;;;;9.63;3.95;;;36.30;21.80;;;;;;21085102;28;20048;-55
2022/07/18 20:17:14;;;;;;;7.85;3.90;;;36.10;22.10;;;;;;21085593;28;20484;-57
2022/07/18 20:27:16;;;;;;;7.05;3.80;;;36.00;22.30;;;;;;21085097;28;20070;-57
2022/07/18 20:37:18;;;;;;;8.57;4.07;;;35.90;22.60;;;;;;21082875;28;20103;-56
2022/07/18 20:47:21;;;;;;;9.05;4.28;;;35.80;22.90;;;;;;21083766;28;20498;-54
2022/07/18 20:57:23;;;;;;;9.70;4.30;;;35.60;23.10;;;;;;21084121;28;20511;-56
2022/07/18 21:07:25;;;;;;;10.98;4.32;;;35.40;23.50;;;;;;21082396;28;20044;-56
2022/07/18 21:17:26;;;;;;;5.72;4.05;;;35.10;23.90;;;;;;21080609;28;20056;-54
2022/07/18 21:27:28;;;;;;;7.78;4.68;;;35.10;24.20;;;;;;21095052;28;20086;-57
2022/07/18 21:37:30;;;;;;;7.22;4.18;;;35.10;24.40;;;;;;21163462;28;20101;-56
2022/07/18 21:47:32;;;;;;;9.52;4.80;;;35.00;24.50;;;;;;21162524;28;20093;-54
2022/07/18 21:57:34;;;;;;;11.68;4.82;;;34.80;25.00;;;;;;21166768;28;20524;-55
2022/07/18 22:07:35;;;;;;;13.63;6.10;;;34.70;25.30;;;;;;21178814;28;20044;-54
2022/07/18 22:17:39;;;;;;;11.20;5.00;;;34.60;25.40;;;;;;21177534;28;20059;-54
2022/07/18 22:27:42;;;;;;;8.40;4.93;;;34.50;25.70;;;;;;21177239;28;20153;-55
2022/07/18 22:37:45;;;;;;;11.55;6.20;;;34.30;26.00;;;;;;21176438;28;20047;-57
2022/07/18 22:47:47;;;;;;;11.82;5.32;;;34.10;26.50;;;;;;21175627;28;20066;-55
2022/07/18 22:57:49;;;;;;;13.52;5.32;;;34.00;26.20;;;;;;21175213;28;20399;-57
2022/07/18 23:08:17;;;;;;;9.60;4.80;;;34.00;26.40;;;;;;21174947;28;20051;-54
2022/07/18 23:18:19;;;;;;;17.63;8.17;;;33.80;26.70;;;;;;21172359;28;20467;-53
2022/07/18 23:28:20;;;;;;;7.07;3.95;;;33.60;27.10;;;;;;21173712;28;20054;-55
2022/07/18 23:38:23;;;;;;;9.38;5.00;;;33.50;27.40;;;;;;21171142;28;20052;-56
2022/07/18 23:48:24;;;;;;;7.32;4.22;;;33.10;27.70;;;;;;21170523;28;20083;-54
2022/07/18 23:58:26;;;;;;;10.43;5.75;;;32.90;28.50;;;;;;21169255;28;20122;-54
